Time;durP1;ratioP1;P1;durP2;ratioP2;P2;SDS_P1;SDS_P2;PMS_P1;PMS_P2;Temp;Humidity;BMP_temperature;BMP_pressure;BME280_temperature;BME280_humidity;BME280_pressure;Samples;Min_cycle;Max_cycle;Signal;HPM_P1;HPM_P2
2023/05/06 00:00:45;;;;;;;16.90;5.40;;;6.80;29.90;;;;;;5073788;28;20190;-79
2023/05/06 00:03:12;;;;;;;8.03;4.23;;;6.80;29.90;;;;;;5074566;28;20663;-78
2023/05/06 00:05:37;;;;;;;5.90;4.27;;;6.80;38.00;;;;;;5074336;28;20967;-69
2023/05/06 00:08:04;;;;;;;7.80;3.83;;;6.80;47.00;;;;;;5074139;28;20413;-71
2023/05/06 00:10:29;;;;;;;10.20;5.43;;;6.80;55.60;;;;;;5055882;28;20519;-71
2023/05/06 00:12:55;;;;;;;7.70;4.30;;;6.80;63.90;;;;;;5074265;28;20448;-71
2023/05/06 00:15:21;;;;;;;9.83;3.90;;;6.80;76.50;;;;;;5074403;28;20853;-79
2023/05/06 00:17:47;;;;;;;6.30;4.03;;;6.90;78.80;;;;;;5074104;28;20193;-72
2023/05/06 00:20:13;;;;;;;5.70;3.80;;;6.90;78.90;;;;;;5073449;28;20190;-71
2023/05/06 00:22:39;;;;;;;11.33;4.50;;;6.90;91.20;;;;;;5074156;28;20202;-77
2023/05/06 00:25:05;;;;;;;4.30;4.00;;;6.90;94.60;;;;;;5073779;28;20908;-74
2023/05/06 00:27:32;;;;;;;9.20;5.20;;;6.90;97.60;;;;;;5073976;28;20468;-71
2023/05/06 00:29:58;;;;;;;10.60;4.87;;;7.00;99.90;;;;;;5073717;28;20912;-72
2023/05/06 00:32:24;;;;;;;6.83;4.00;;;7.00;99.90;;;;;;5073343;28;20503;-74
2023/05/06 00:34:49;;;;;;;6.33;4.17;;;7.00;99.90;;;;;;5056420;28;20174;-71
2023/05/06 00:37:15;;;;;;;4.90;4.50;;;7.00;99.90;;;;;;5073900;28;20177;-78
2023/05/06 00:39:41;;;;;;;5.80;4.33;;;7.00;99.90;;;;;;5056104;28;20649;-71
2023/05/06 00:42:06;;;;;;;6.23;4.70;;;7.00;99.90;;;;;;5072492;28;20162;-71
2023/05/06 00:44:32;;;;;;;5.10;4.23;;;7.00;99.90;;;;;;5073590;28;20531;-72
2023/05/06 00:46:59;;;;;;;6.70;4.97;;;7.00;99.90;;;;;;5056244;28;20174;-78
2023/05/06 00:49:26;;;;;;;6.47;3.97;;;7.00;99.90;;;;;;5073718;28;20166;-71
2023/05/06 00:51:55;;;;;;;7.40;4.00;;;7.00;99.90;;;;;;5072664;28;20494;-71
2023/05/06 00:54:20;;;;;;;6.73;3.60;;;7.00;99.90;;;;;;5073314;28;20793;-72
2023/05/06 00:56:46;;;;;;;8.33;4.50;;;7.00;99.90;;;;;;5073606;28;20405;-78
2023/05/06 00:59:12;;;;;;;8.37;4.43;;;7.00;99.90;;;;;;5073246;28;20560;-73
2023/05/06 01:01:38;;;;;;;4.37;3.87;;;7.00;99.90;;;;;;5072187;28;20189;-77
2023/05/06 01:04:03;;;;;;;13.73;4.10;;;7.00;99.90;;;;;;5073298;28;20185;-71
2023/05/06 01:06:29;;;;;;;5.00;4.40;;;7.10;99.90;;;;;;5073305;28;20193;-77
2023/05/06 01:09:23;;;;;;;7.13;3.87;;;7.10;99.90;;;;;;5073483;28;20171;-71
2023/05/06 01:12:01;;;;;;;6.47;3.67;;;7.10;99.90;;;;;;5072372;28;20166;-76
2023/05/06 01:14:51;;;;;;;5.30;4.20;;;7.10;99.90;;;;;;5073201;28;20423;-76
2023/05/06 01:17:18;;;;;;;9.00;4.53;;;7.10;99.90;;;;;;5054866;28;20943;-71
2023/05/06 01:19:47;;;;;;;5.97;4.77;;;7.00;99.90;;;;;;5073022;28;21095;-77
2023/05/06 01:22:15;;;;;;;6.00;4.70;;;7.10;99.90;;;;;;5072480;28;20422;-71
2023/05/06 01:24:42;;;;;;;9.53;3.57;;;7.10;99.90;;;;;;5073158;28;20392;-78
2023/05/06 01:27:10;;;;;;;8.30;4.07;;;7.10;99.90;;;;;;5073189;28;20496;-73
2023/05/06 01:29:37;;;;;;;17.47;5.00;;;7.10;99.90;;;;;;5073209;28;20462;-79
2023/05/06 01:32:57;;;;;;;12.17;5.43;;;7.10;99.90;;;;;;5072169;28;20432;-79
2023/05/06 01:35:45;;;;;;;4.80;4.20;;;7.10;99.90;;;;;;4971492;28;20425;-72
2023/05/06 01:38:16;;;;;;;5.10;3.40;;;7.10;99.90;;;;;;4972256;28;20553;-77
2023/05/06 01:40:44;;;;;;;7.30;4.60;;;7.10;99.90;;;;;;5036574;28;20405;-71
2023/05/06 01:43:12;;;;;;;10.07;4.90;;;7.10;99.90;;;;;;5072899;28;20465;-76
2023/05/06 01:45:39;;;;;;;7.33;5.23;;;7.10;99.90;;;;;;5073064;28;20903;-78
2023/05/06 01:48:05;;;;;;;8.17;4.17;;;7.10;99.90;;;;;;5072893;28;20904;-72
2023/05/06 01:50:32;;;;;;;7.20;4.90;;;7.10;99.90;;;;;;5071945;28;20385;-72
2023/05/06 01:52:59;;;;;;;11.97;5.10;;;7.10;99.90;;;;;;5054179;28;20519;-77
2023/05/06 01:55:25;;;;;;;5.57;4.87;;;7.00;99.90;;;;;;5072827;28;20460;-77
2023/05/06 01:57:52;;;;;;;8.47;5.10;;;7.10;99.90;;;;;;5072864;28;20781;-76
2023/05/06 02:00:17;;;;;;;9.40;4.60;;;7.10;99.90;;;;;;5053967;28;20452;-73
2023/05/06 02:02:43;;;;;;;8.77;5.40;;;7.10;99.90;;;;;;5054857;28;20432;-76
2023/05/06 02:05:09;;;;;;;7.73;5.20;;;7.10;99.90;;;;;;5072813;28;20166;-76
2023/05/06 02:07:35;;;;;;;9.33;5.13;;;7.10;99.90;;;;;;5075116;28;20404;-77
2023/05/06 02:10:00;;;;;;;4.63;4.10;;;7.10;99.90;;;;;;5076393;28;20167;-73
2023/05/06 02:12:26;;;;;;;7.03;4.50;;;7.10;99.90;;;;;;5057817;28;20201;-77
2023/05/06 02:14:52;;;;;;;17.20;6.73;;;7.20;99.90;;;;;;5076686;28;20542;-77
2023/05/06 02:17:17;;;;;;;7.60;4.83;;;7.10;99.90;;;;;;5076603;28;20177;-73
2023/05/06 02:19:43;;;;;;;6.97;5.13;;;7.10;99.90;;;;;;5058520;28;20194;-74
2023/05/06 02:22:10;;;;;;;5.83;4.97;;;7.10;99.90;;;;;;5057994;28;20194;-77
2023/05/06 02:24:35;;;;;;;4.73;4.13;;;7.10;99.90;;;;;;5076337;28;20178;-71
2023/05/06 02:27:01;;;;;;;9.33;4.40;;;7.10;99.90;;;;;;5058500;28;20413;-72
2023/05/06 02:29:27;;;;;;;8.63;4.77;;;7.10;99.90;;;;;;5057849;28;20171;-73
2023/05/06 02:31:52;;;;;;;6.20;5.43;;;7.10;99.90;;;;;;5075246;28;20651;-77
2023/05/06 02:34:18;;;;;;;7.40;4.33;;;7.10;99.90;;;;;;5076444;28;20216;-71
2023/05/06 02:36:43;;;;;;;7.93;5.43;;;7.10;99.90;;;;;;5058399;28;20305;-72
2023/05/06 02:39:09;;;;;;;7.20;4.50;;;7.10;99.90;;;;;;5058289;28;20205;-71
2023/05/06 02:41:35;;;;;;;6.40;4.50;;;7.10;99.90;;;;;;5075384;28;20177;-71
2023/05/06 02:44:00;;;;;;;15.43;4.73;;;7.10;99.90;;;;;;5058018;28;20201;-71
2023/05/06 02:46:26;;;;;;;7.23;4.77;;;7.10;99.90;;;;;;5075888;28;20243;-71
2023/05/06 02:48:52;;;;;;;8.10;5.30;;;7.10;99.90;;;;;;5075460;28;20639;-72
2023/05/06 02:51:17;;;;;;;6.73;5.33;;;7.10;99.90;;;;;;5075113;28;20253;-76
2023/05/06 02:53:43;;;;;;;4.70;4.40;;;7.00;99.90;;;;;;5075946;28;20190;-72
2023/05/06 02:56:09;;;;;;;9.30;5.53;;;7.10;99.90;;;;;;5076096;28;20168;-76
2023/05/06 02:58:34;;;;;;;11.27;4.20;;;7.00;99.90;;;;;;5075842;28;20194;-70
2023/05/06 03:01:00;;;;;;;9.30;4.90;;;7.00;99.90;;;;;;5074930;28;20166;-72
2023/05/06 03:03:26;;;;;;;6.33;5.70;;;7.00;99.90;;;;;;5075708;28;20190;-76
2023/05/06 03:05:51;;;;;;;8.73;5.47;;;7.00;99.90;;;;;;5057734;28;20905;-71
2023/05/06 03:08:17;;;;;;;7.83;4.40;;;7.00;99.90;;;;;;5075198;28;20170;-76
2023/05/06 03:10:43;;;;;;;6.47;4.70;;;7.00;99.90;;;;;;5074861;28;20174;-75
2023/05/06 03:13:09;;;;;;;12.13;5.17;;;7.10;99.90;;;;;;5075384;28;20206;-72
2023/05/06 03:15:34;;;;;;;8.00;5.97;;;7.10;99.90;;;;;;5075398;28;20243;-72
2023/05/06 03:18:00;;;;;;;8.67;5.53;;;7.00;99.90;;;;;;5075232;28;20154;-76
2023/05/06 03:20:27;;;;;;;11.33;5.50;;;7.10;99.90;;;;;;5074606;28;20166;-76
2023/05/06 03:22:53;;;;;;;13.03;5.80;;;7.00;99.90;;;;;;5075606;28;20182;-76
2023/05/06 03:25:20;;;;;;;12.23;6.37;;;7.10;99.90;;;;;;5074976;28;20905;-72
2023/05/06 03:27:45;;;;;;;5.40;4.90;;;7.10;99.90;;;;;;5075153;28;20407;-76
2023/05/06 03:30:11;;;;;;;4.90;4.40;;;7.10;99.90;;;;;;5074476;28;20412;-76
2023/05/06 03:32:37;;;;;;;10.93;5.27;;;7.10;99.90;;;;;;5075221;28;20194;-76
2023/05/06 03:35:03;;;;;;;10.00;6.20;;;7.10;99.90;;;;;;5075380;28;20939;-76
2023/05/06 03:37:29;;;;;;;8.17;4.73;;;7.00;99.90;;;;;;5075224;28;20225;-76
2023/05/06 03:39:55;;;;;;;6.50;4.80;;;7.00;99.90;;;;;;5074871;28;20631;-75
2023/05/06 03:42:21;;;;;;;10.60;5.43;;;7.00;99.90;;;;;;5074514;28;20464;-74
2023/05/06 03:44:49;;;;;;;6.10;5.37;;;7.00;99.90;;;;;;5073377;28;20630;-72
2023/05/06 03:47:15;;;;;;;10.20;6.40;;;7.00;99.90;;;;;;5075016;28;20245;-74
2023/05/06 03:49:41;;;;;;;17.47;5.50;;;7.00;99.90;;;;;;5074976;28;20432;-75
2023/05/06 03:52:06;;;;;;;9.90;6.13;;;7.00;99.90;;;;;;5072755;28;20951;-76
2023/05/06 03:54:32;;;;;;;16.23;5.83;;;7.00;99.90;;;;;;5074896;28;20170;-76
2023/05/06 03:56:58;;;;;;;10.10;6.17;;;7.00;99.90;;;;;;5074957;28;20202;-71
2023/05/06 03:59:23;;;;;;;10.87;5.80;;;7.00;99.90;;;;;;5074648;28;20201;-72
2023/05/06 04:01:50;;;;;;;10.60;5.00;;;7.00;99.90;;;;;;5055157;28;20167;-71
2023/05/06 04:04:15;;;;;;;5.93;4.77;;;7.00;99.90;;;;;;5074836;28;20236;-71
2023/05/06 04:06:41;;;;;;;5.83;5.33;;;6.90;99.90;;;;;;5074677;28;20431;-71
2023/05/06 04:09:06;;;;;;;7.87;6.23;;;7.00;99.90;;;;;;5073571;28;20170;-75
2023/05/06 04:11:34;;;;;;;5.43;4.90;;;7.00;99.90;;;;;;5072692;28;20692;-75
2023/05/06 04:13:59;;;;;;;6.80;5.50;;;6.90;99.90;;;;;;5072790;28;20211;-74
2023/05/06 04:16:25;;;;;;;5.80;5.30;;;7.00;99.90;;;;;;5074745;28;20904;-75
2023/05/06 04:18:51;;;;;;;13.67;5.53;;;6.90;99.90;;;;;;5073838;28;20630;-72
2023/05/06 04:21:17;;;;;;;9.93;5.70;;;6.90;99.90;;;;;;5073449;28;20162;-73
2023/05/06 04:23:43;;;;;;;7.70;5.90;;;6.90;99.90;;;;;;5072901;28;20432;-75
2023/05/06 04:26:09;;;;;;;4.80;4.40;;;6.90;99.90;;;;;;5073015;28;20174;-76
2023/05/06 04:28:35;;;;;;;7.53;5.33;;;7.00;99.90;;;;;;5074208;28;20412;-73
2023/05/06 04:31:01;;;;;;;12.17;5.87;;;6.90;99.90;;;;;;5072801;28;20396;-75
2023/05/06 04:33:28;;;;;;;7.77;5.23;;;7.00;99.90;;;;;;5074057;28;20186;-73
2023/05/06 04:35:54;;;;;;;5.77;5.27;;;7.00;99.90;;;;;;5073850;28;20400;-75
2023/05/06 04:38:21;;;;;;;9.40;5.70;;;6.90;99.90;;;;;;5073446;28;20809;-73
2023/05/06 04:40:48;;;;;;;10.07;6.30;;;6.90;99.90;;;;;;5072974;28;20478;-73
2023/05/06 04:43:15;;;;;;;9.33;6.13;;;6.90;99.90;;;;;;5073792;28;20452;-75
2023/05/06 04:45:48;;;;;;;11.30;5.20;;;6.90;99.90;;;;;;5073979;28;20457;-75
2023/05/06 04:48:21;;;;;;;7.83;5.67;;;7.00;99.90;;;;;;5073816;28;20454;-75
2023/05/06 04:50:47;;;;;;;5.00;4.20;;;6.90;99.90;;;;;;5071512;28;20409;-73
2023/05/06 04:53:14;;;;;;;7.70;5.10;;;7.00;99.90;;;;;;5073688;28;20473;-74
2023/05/06 04:55:39;;;;;;;9.20;5.73;;;7.00;99.90;;;;;;5071797;28;20408;-73
2023/05/06 04:58:06;;;;;;;8.30;5.43;;;6.90;99.90;;;;;;5073429;28;20479;-74
2023/05/06 05:00:32;;;;;;;9.03;5.90;;;7.00;99.90;;;;;;5071454;28;20584;-75
2023/05/06 05:02:58;;;;;;;7.40;5.63;;;7.00;99.90;;;;;;5073518;28;20456;-73
2023/05/06 05:05:26;;;;;;;5.87;5.30;;;7.00;99.90;;;;;;5073506;28;20425;-75
2023/05/06 05:07:51;;;;;;;7.73;5.90;;;7.00;99.90;;;;;;5073372;28;20162;-75
2023/05/06 05:10:17;;;;;;;8.77;5.70;;;6.90;99.90;;;;;;5072488;28;20876;-73
2023/05/06 05:12:43;;;;;;;6.50;5.90;;;7.00;99.90;;;;;;5073083;28;20202;-75
2023/05/06 05:15:09;;;;;;;8.03;5.93;;;6.90;99.90;;;;;;5071608;28;20170;-75
2023/05/06 05:17:34;;;;;;;7.50;5.80;;;6.90;99.90;;;;;;5073529;28;20166;-75
2023/05/06 05:20:00;;;;;;;6.53;5.93;;;6.90;99.90;;;;;;5072969;28;20821;-75
2023/05/06 05:22:26;;;;;;;6.23;5.60;;;7.00;99.90;;;;;;5072535;28;20535;-74
2023/05/06 05:24:51;;;;;;;8.90;5.23;;;7.00;99.90;;;;;;5073317;28;20527;-75
2023/05/06 05:27:17;;;;;;;8.03;5.70;;;7.00;99.90;;;;;;5073193;28;20169;-74
2023/05/06 05:29:43;;;;;;;9.10;6.70;;;7.00;99.90;;;;;;5072980;28;20174;-74
2023/05/06 05:32:08;;;;;;;6.10;5.50;;;7.00;99.90;;;;;;5071781;28;20220;-74
2023/05/06 05:34:35;;;;;;;15.97;6.40;;;7.00;99.90;;;;;;5073090;28;20176;-75
2023/05/06 05:37:00;;;;;;;6.23;4.97;;;7.10;99.90;;;;;;5073221;28;20227;-73
2023/05/06 05:39:26;;;;;;;9.40;5.83;;;7.10;99.90;;;;;;5072973;28;20964;-75
2023/05/06 05:41:52;;;;;;;10.00;6.93;;;7.10;99.90;;;;;;5072097;28;20162;-74
2023/05/06 05:44:17;;;;;;;7.50;5.73;;;7.10;99.90;;;;;;5071831;28;20607;-74
2023/05/06 05:46:43;;;;;;;8.60;6.63;;;7.10;99.90;;;;;;5072614;28;20166;-75
2023/05/06 05:49:08;;;;;;;6.87;6.07;;;7.00;99.90;;;;;;5072751;28;20215;-73
2023/05/06 05:51:34;;;;;;;6.63;4.60;;;7.10;99.90;;;;;;5070902;28;20177;-74
2023/05/06 05:54:00;;;;;;;7.13;5.70;;;7.10;99.90;;;;;;5072568;28;20194;-75
2023/05/06 05:56:25;;;;;;;11.53;6.17;;;7.10;99.90;;;;;;5072594;28;20630;-74
2023/05/06 05:58:51;;;;;;;8.33;6.67;;;7.10;99.90;;;;;;5072890;28;20198;-75
2023/05/06 06:01:18;;;;;;;7.90;7.00;;;7.10;99.90;;;;;;5071979;28;20159;-73
2023/05/06 06:03:44;;;;;;;7.77;6.20;;;7.10;99.90;;;;;;5072864;28;20850;-74
2023/05/06 06:06:10;;;;;;;5.87;5.27;;;7.20;99.90;;;;;;5072253;28;20392;-74
2023/05/06 06:08:36;;;;;;;9.90;6.37;;;7.20;99.90;;;;;;5072720;28;20407;-74
2023/05/06 06:11:03;;;;;;;6.13;5.53;;;7.20;99.90;;;;;;5071843;28;20757;-73
2023/05/06 06:13:29;;;;;;;12.23;6.40;;;7.20;99.90;;;;;;5071266;28;20297;-77
2023/05/06 06:15:57;;;;;;;13.83;6.90;;;7.20;99.90;;;;;;5072774;28;20409;-75
2023/05/06 06:18:23;;;;;;;7.37;6.67;;;7.20;99.90;;;;;;5072647;28;20387;-80
2023/05/06 06:20:49;;;;;;;7.80;6.77;;;7.20;99.90;;;;;;5071721;28;20439;-74
2023/05/06 06:23:15;;;;;;;9.30;7.23;;;7.20;99.90;;;;;;5070599;28;20190;-73
2023/05/06 06:25:43;;;;;;;8.47;5.87;;;7.20;99.90;;;;;;5071402;28;20412;-75
2023/05/06 06:28:08;;;;;;;10.20;6.57;;;7.20;99.90;;;;;;5071673;28;20400;-75
2023/05/06 06:30:34;;;;;;;8.43;6.67;;;7.20;99.90;;;;;;5070261;28;20436;-74
2023/05/06 06:33:01;;;;;;;10.10;6.20;;;7.20;99.90;;;;;;5071203;28;20190;-74
2023/05/06 06:35:27;;;;;;;6.90;5.80;;;7.20;99.90;;;;;;5072595;28;20188;-72
2023/05/06 06:37:53;;;;;;;11.63;6.40;;;7.20;99.90;;;;;;5072471;28;20457;-73
2023/05/06 06:40:20;;;;;;;8.30;6.77;;;7.20;99.90;;;;;;5071502;28;20194;-74
2023/05/06 06:42:46;;;;;;;7.30;6.70;;;7.20;99.90;;;;;;5071709;28;20412;-74
2023/05/06 06:45:13;;;;;;;7.03;6.23;;;7.20;99.90;;;;;;5072431;28;20404;-74
2023/05/06 06:47:39;;;;;;;9.93;6.97;;;7.20;99.90;;;;;;5072602;28;20396;-73
2023/05/06 06:50:07;;;;;;;11.03;7.33;;;7.20;99.90;;;;;;5071654;28;20921;-74
2023/05/06 06:52:33;;;;;;;8.20;6.63;;;7.20;99.90;;;;;;5072828;28;20420;-74
2023/05/06 06:54:59;;;;;;;7.63;6.30;;;7.30;99.90;;;;;;5074694;28;20481;-74
2023/05/06 06:57:25;;;;;;;8.47;7.00;;;7.30;99.90;;;;;;5075829;28;20431;-73
2023/05/06 06:59:52;;;;;;;14.93;6.87;;;7.30;99.90;;;;;;5074926;28;20477;-74
2023/05/06 07:02:18;;;;;;;9.07;7.00;;;7.30;99.90;;;;;;5075109;28;20420;-74
2023/05/06 07:04:44;;;;;;;6.57;5.93;;;7.30;99.90;;;;;;5074804;28;20462;-73
2023/05/06 07:07:10;;;;;;;8.13;7.30;;;7.30;99.90;;;;;;5075660;28;20401;-73
2023/05/06 07:09:35;;;;;;;9.63;6.53;;;7.30;99.90;;;;;;5074762;28;20539;-73
2023/05/06 07:12:01;;;;;;;6.33;5.63;;;7.30;99.90;;;;;;5074691;28;20172;-74
2023/05/06 07:14:27;;;;;;;12.03;6.47;;;7.40;99.90;;;;;;5074600;28;20220;-74
2023/05/06 07:16:52;;;;;;;9.20;6.17;;;7.30;99.90;;;;;;5074298;28;20174;-73
2023/05/06 07:19:18;;;;;;;8.63;6.73;;;7.40;99.90;;;;;;5074906;28;20205;-74
2023/05/06 07:21:45;;;;;;;11.10;6.70;;;7.40;99.90;;;;;;5074554;28;20205;-74
2023/05/06 07:24:10;;;;;;;12.73;6.33;;;7.40;99.90;;;;;;5075484;28;20424;-72
2023/05/06 07:26:37;;;;;;;7.50;6.27;;;7.40;99.90;;;;;;5075431;28;20173;-74
2023/05/06 07:29:03;;;;;;;8.57;6.00;;;7.40;99.90;;;;;;5075138;28;20184;-73
2023/05/06 07:31:30;;;;;;;11.80;6.60;;;7.40;99.90;;;;;;5074448;28;20420;-74
2023/05/06 07:33:57;;;;;;;9.13;6.20;;;7.30;99.90;;;;;;5074965;28;20452;-73
2023/05/06 07:36:23;;;;;;;14.27;7.50;;;7.40;99.90;;;;;;5074785;28;20740;-73
2023/05/06 07:38:49;;;;;;;8.00;7.20;;;7.40;99.90;;;;;;5075132;28;20996;-74
2023/05/06 07:41:15;;;;;;;7.83;6.87;;;7.40;99.90;;;;;;5074479;28;20428;-73
2023/05/06 07:43:41;;;;;;;12.67;7.23;;;7.40;99.90;;;;;;5075110;28;20634;-72
2023/05/06 07:46:07;;;;;;;12.97;7.10;;;7.40;99.90;;;;;;5075013;28;20388;-72
2023/05/06 07:48:32;;;;;;;10.67;6.60;;;7.40;99.90;;;;;;5074893;28;20410;-73
2023/05/06 07:50:59;;;;;;;8.37;6.50;;;7.40;99.90;;;;;;5073149;28;20634;-73
2023/05/06 07:53:25;;;;;;;7.90;7.10;;;7.40;99.90;;;;;;5074548;28;20264;-73
2023/05/06 07:55:54;;;;;;;7.10;6.40;;;7.40;99.90;;;;;;5074580;28;20408;-72
2023/05/06 07:58:20;;;;;;;10.27;6.50;;;7.40;99.90;;;;;;5074839;28;20404;-73
2023/05/06 08:00:45;;;;;;;9.27;7.03;;;7.50;99.90;;;;;;5074180;28;20450;-73
2023/05/06 08:03:11;;;;;;;7.40;6.70;;;7.40;99.90;;;;;;5074579;28;20190;-73
2023/05/06 08:05:37;;;;;;;8.57;7.37;;;7.40;99.90;;;;;;5073690;28;20244;-73
2023/05/06 08:08:03;;;;;;;9.87;6.70;;;7.50;99.90;;;;;;5074609;28;20208;-73
2023/05/06 08:10:28;;;;;;;7.40;6.70;;;7.50;99.90;;;;;;5072958;28;20416;-72
2023/05/06 08:12:54;;;;;;;6.73;6.10;;;7.50;99.90;;;;;;5072636;28;20471;-72
2023/05/06 08:15:20;;;;;;;8.30;7.60;;;7.50;99.90;;;;;;5074490;28;20166;-73
2023/05/06 08:17:45;;;;;;;10.83;7.60;;;7.50;99.90;;;;;;5074302;28;20220;-73
2023/05/06 08:20:12;;;;;;;8.10;7.03;;;7.60;99.90;;;;;;5073868;28;20194;-73
2023/05/06 08:22:38;;;;;;;11.43;7.13;;;7.60;99.90;;;;;;5072820;28;20693;-73
2023/05/06 08:25:05;;;;;;;9.23;7.07;;;7.70;99.90;;;;;;5074318;28;20401;-73
2023/05/06 08:27:30;;;;;;;10.83;7.30;;;7.70;99.90;;;;;;5073036;28;20562;-73
2023/05/06 08:29:56;;;;;;;8.40;6.93;;;7.70;99.90;;;;;;5056004;28;20416;-73
2023/05/06 08:32:22;;;;;;;9.17;7.53;;;7.80;99.90;;;;;;5073107;28;20381;-73
2023/05/06 08:34:47;;;;;;;10.40;7.57;;;7.70;99.90;;;;;;5074132;28;20174;-73
2023/05/06 08:37:13;;;;;;;7.60;6.83;;;7.80;99.90;;;;;;5073997;28;20189;-73
2023/05/06 08:39:39;;;;;;;8.17;6.70;;;7.80;99.90;;;;;;5056082;28;20206;-73
2023/05/06 08:42:10;;;;;;;7.70;6.77;;;7.80;99.90;;;;;;5073409;28;21314;-73
2023/05/06 08:44:36;;;;;;;7.13;6.53;;;7.80;99.90;;;;;;5073979;28;20397;-73
2023/05/06 08:47:01;;;;;;;12.20;7.20;;;7.80;99.90;;;;;;5073946;28;20392;-72
2023/05/06 08:49:27;;;;;;;11.30;7.43;;;7.80;99.90;;;;;;5074060;28;20248;-72
2023/05/06 08:51:53;;;;;;;8.90;7.80;;;7.80;99.90;;;;;;5072397;28;20948;-72
2023/05/06 08:54:22;;;;;;;8.97;8.07;;;7.90;99.90;;;;;;5072813;28;20702;-72
2023/05/06 08:56:54;;;;;;;13.57;7.40;;;7.90;99.90;;;;;;5073695;28;20183;-73
2023/05/06 08:59:23;;;;;;;7.60;5.90;;;7.90;99.90;;;;;;5073496;28;20480;-72
2023/05/06 09:01:50;;;;;;;7.73;6.83;;;7.90;99.90;;;;;;5072209;28;20889;-72
2023/05/06 09:04:17;;;;;;;7.80;7.10;;;8.00;99.90;;;;;;5072111;28;20507;-72
2023/05/06 09:06:43;;;;;;;9.10;6.50;;;8.00;99.90;;;;;;5073534;28;20419;-72
2023/05/06 09:09:09;;;;;;;7.80;6.70;;;7.90;99.90;;;;;;5073096;28;20404;-72
2023/05/06 09:11:38;;;;;;;7.77;6.97;;;7.90;99.90;;;;;;5071944;28;20167;-72
2023/05/06 09:14:10;;;;;;;6.23;5.33;;;7.90;99.90;;;;;;5073111;28;20281;-72
2023/05/06 09:16:37;;;;;;;6.87;5.60;;;7.90;99.90;;;;;;5073091;28;20468;-72
2023/05/06 09:19:03;;;;;;;8.60;6.83;;;7.90;99.90;;;;;;5073169;28;20931;-72
2023/05/06 09:21:35;;;;;;;8.40;5.73;;;7.90;99.90;;;;;;5054488;28;20454;-72
2023/05/06 09:24:03;;;;;;;6.90;6.07;;;7.90;99.90;;;;;;5073062;28;20451;-71
2023/05/06 09:26:30;;;;;;;6.67;6.03;;;8.00;99.90;;;;;;5073142;28;20468;-72
2023/05/06 09:28:57;;;;;;;6.70;6.07;;;8.00;99.90;;;;;;5072939;28;20380;-72
2023/05/06 09:31:24;;;;;;;6.53;5.93;;;8.10;99.90;;;;;;5072060;28;20757;-72
2023/05/06 09:33:50;;;;;;;8.60;6.93;;;8.10;99.90;;;;;;5073228;28;20514;-71
2023/05/06 09:36:16;;;;;;;8.60;7.10;;;8.10;99.90;;;;;;5073051;28;20406;-72
2023/05/06 09:38:42;;;;;;;8.20;6.63;;;8.20;99.90;;;;;;5073103;28;20533;-72
2023/05/06 09:41:08;;;;;;;10.50;7.00;;;8.20;99.90;;;;;;5072255;28;20437;-72
2023/05/06 09:43:40;;;;;;;7.83;6.40;;;8.20;99.90;;;;;;5073014;28;20184;-72
2023/05/06 09:46:06;;;;;;;7.20;6.50;;;8.20;99.90;;;;;;5072297;28;20408;-72
2023/05/06 09:48:32;;;;;;;6.60;6.00;;;8.20;99.90;;;;;;5073024;28;20368;-72
2023/05/06 09:50:58;;;;;;;6.60;5.93;;;8.30;99.90;;;;;;5072080;28;20444;-72
2023/05/06 09:53:26;;;;;;;9.00;7.03;;;8.30;99.90;;;;;;5073042;28;20498;-72
2023/05/06 09:55:52;;;;;;;8.63;5.70;;;8.30;99.90;;;;;;5071482;28;20519;-71
2023/05/06 09:58:19;;;;;;;7.70;6.57;;;8.30;99.90;;;;;;5072744;28;20392;-71
2023/05/06 10:00:45;;;;;;;9.70;6.70;;;8.20;99.90;;;;;;5071998;28;20408;-72
2023/05/06 10:03:14;;;;;;;10.77;7.33;;;8.30;99.90;;;;;;5072195;28;20417;-72
2023/05/06 10:05:40;;;;;;;7.80;6.80;;;8.30;99.90;;;;;;5072637;28;20407;-72
2023/05/06 10:08:08;;;;;;;6.57;5.90;;;8.40;99.90;;;;;;5072608;28;20394;-72
2023/05/06 10:10:35;;;;;;;8.33;6.23;;;8.30;99.90;;;;;;5071632;28;20744;-72
2023/05/06 10:13:04;;;;;;;6.97;6.27;;;8.20;99.90;;;;;;5071187;28;20945;-72
2023/05/06 10:15:31;;;;;;;8.27;7.47;;;8.20;99.90;;;;;;5071466;28;20510;-72
2023/05/06 10:17:58;;;;;;;10.33;7.10;;;8.20;99.90;;;;;;5072711;28;20754;-72
2023/05/06 10:20:26;;;;;;;8.07;6.90;;;8.20;99.90;;;;;;5053670;28;20452;-70
2023/05/06 10:23:16;;;;;;;9.70;7.70;;;8.20;99.90;;;;;;5071991;28;20437;-72
2023/05/06 10:25:44;;;;;;;15.53;7.23;;;8.20;99.90;;;;;;5072551;28;20465;-72
2023/05/06 10:28:11;;;;;;;11.60;7.90;;;8.20;99.90;;;;;;5074287;28;20375;-71
2023/05/06 10:30:38;;;;;;;10.60;8.07;;;8.30;99.90;;;;;;5075452;28;20920;-72
2023/05/06 10:33:06;;;;;;;10.17;7.43;;;8.30;99.90;;;;;;5076374;28;20422;-72
2023/05/06 10:35:56;;;;;;;7.80;6.90;;;8.30;99.90;;;;;;5076474;28;20490;-72
2023/05/06 10:38:43;;;;;;;7.67;6.97;;;8.40;99.90;;;;;;5076160;28;20406;-71
2023/05/06 10:41:09;;;;;;;7.80;7.00;;;8.40;99.90;;;;;;5074822;28;20410;-72
2023/05/06 10:43:40;;;;;;;6.93;6.33;;;8.50;99.90;;;;;;5074422;28;20429;-71
2023/05/06 10:46:10;;;;;;;7.80;6.47;;;8.50;99.90;;;;;;5076352;28;20373;-71
2023/05/06 10:48:57;;;;;;;7.43;6.73;;;8.40;99.90;;;;;;5076122;28;20406;-70
2023/05/06 10:51:27;;;;;;;9.83;6.10;;;8.40;99.90;;;;;;5064482;28;20869;-72
2023/05/06 10:54:09;;;;;;;6.20;5.60;;;8.40;99.90;;;;;;5074554;28;20430;-71
2023/05/06 10:56:50;;;;;;;6.37;5.83;;;8.40;99.90;;;;;;5075874;28;20443;-71
2023/05/06 10:59:20;;;;;;;6.93;6.23;;;8.40;99.90;;;;;;5075546;28;20872;-71
2023/05/06 11:02:03;;;;;;;6.80;6.20;;;8.40;99.90;;;;;;5074767;28;20372;-70
2023/05/06 11:04:30;;;;;;;7.57;6.50;;;8.40;99.90;;;;;;5075787;28;20407;-72
2023/05/06 11:07:07;;;;;;;7.20;6.50;;;8.50;99.90;;;;;;5075712;28;20894;-72
2023/05/06 11:09:32;;;;;;;7.20;6.13;;;8.60;99.90;;;;;;5075628;28;20405;-70
2023/05/06 11:12:03;;;;;;;7.53;6.33;;;8.60;99.90;;;;;;5074807;28;20919;-70
2023/05/06 11:14:36;;;;;;;5.40;5.00;;;8.70;99.90;;;;;;5075536;28;20191;-72
2023/05/06 11:17:07;;;;;;;6.33;5.70;;;8.70;99.90;;;;;;5075537;28;20899;-70
2023/05/06 11:19:34;;;;;;;6.93;5.70;;;8.70;99.90;;;;;;5073583;28;21074;-71
2023/05/06 11:22:02;;;;;;;6.47;5.87;;;8.70;99.90;;;;;;5056473;28;20539;-70
2023/05/06 11:24:39;;;;;;;5.50;5.03;;;8.70;99.90;;;;;;5075570;28;20405;-71
2023/05/06 11:27:06;;;;;;;5.90;4.70;;;8.70;99.90;;;;;;5075343;28;20878;-71
2023/05/06 11:29:32;;;;;;;5.83;4.87;;;8.70;99.90;;;;;;5075337;28;20384;-70
2023/05/06 11:31:58;;;;;;;5.37;4.90;;;8.70;99.90;;;;;;5074397;28;20892;-70
2023/05/06 11:34:31;;;;;;;5.10;4.70;;;8.80;99.90;;;;;;5075234;28;20494;-70
2023/05/06 11:37:03;;;;;;;5.33;4.63;;;8.80;99.90;;;;;;5056992;28;20431;-70
2023/05/06 11:39:32;;;;;;;5.53;4.70;;;8.70;99.90;;;;;;5074760;28;20527;-69
2023/05/06 11:42:05;;;;;;;5.00;4.40;;;8.70;99.90;;;;;;5074164;28;20412;-72
2023/05/06 11:44:38;;;;;;;5.37;4.97;;;8.80;99.90;;;;;;5075122;28;20482;-70
2023/05/06 11:47:08;;;;;;;5.70;5.10;;;8.70;99.90;;;;;;5074921;28;20407;-69
2023/05/06 11:49:39;;;;;;;6.47;5.97;;;8.80;99.90;;;;;;5075114;28;20508;-71
2023/05/06 11:52:06;;;;;;;4.80;4.40;;;8.90;99.90;;;;;;5074065;28;20790;-72
2023/05/06 11:54:39;;;;;;;5.83;5.27;;;8.90;99.90;;;;;;5056306;28;20390;-69
2023/05/06 11:57:05;;;;;;;6.10;5.60;;;9.00;99.90;;;;;;5074747;28;20858;-72
2023/05/06 11:59:36;;;;;;;7.70;5.40;;;9.00;99.90;;;;;;5056779;28;20470;-68
2023/05/06 12:02:04;;;;;;;5.43;4.93;;;9.00;99.90;;;;;;5073859;28;20741;-69
2023/05/06 12:04:46;;;;;;;6.10;5.10;;;9.00;99.90;;;;;;5074649;28;20401;-69
2023/05/06 12:07:13;;;;;;;6.53;4.70;;;9.00;99.90;;;;;;5074534;28;20408;-69
2023/05/06 12:09:47;;;;;;;5.93;5.40;;;8.90;94.90;;;;;;5074345;28;20425;-71
2023/05/06 12:12:21;;;;;;;5.67;5.13;;;8.80;80.30;;;;;;5073433;28;20454;-69
2023/05/06 12:14:48;;;;;;;5.70;4.97;;;8.80;73.70;;;;;;5056352;28;20510;-71
2023/05/06 12:17:15;;;;;;;5.27;4.90;;;8.90;77.70;;;;;;5073827;28;20510;-68
2023/05/06 12:19:41;;;;;;;6.80;6.10;;;8.90;72.40;;;;;;5074318;28;20448;-69
2023/05/06 12:22:21;;;;;;;5.47;4.97;;;8.90;66.60;;;;;;5073454;28;20888;-69
2023/05/06 12:24:47;;;;;;;5.60;5.10;;;8.90;60.70;;;;;;5074340;28;20490;-68
2023/05/06 12:27:14;;;;;;;6.77;5.77;;;8.90;56.50;;;;;;5074101;28;21080;-68
2023/05/06 12:29:50;;;;;;;7.03;6.03;;;8.90;52.70;;;;;;5073873;28;20461;-71
2023/05/06 12:32:16;;;;;;;6.80;6.10;;;8.90;43.20;;;;;;5072569;28;20427;-70
2023/05/06 12:34:42;;;;;;;5.57;5.17;;;8.90;32.00;;;;;;5075155;28;20393;-71
2023/05/06 12:37:10;;;;;;;7.13;6.20;;;8.90;31.90;;;;;;5073339;28;20485;-71
2023/05/06 12:39:38;;;;;;;9.07;5.73;;;8.90;31.90;;;;;;5073711;28;20566;-69
2023/05/06 12:42:04;;;;;;;7.27;6.27;;;8.90;35.20;;;;;;5073045;28;20843;-71
2023/05/06 12:44:32;;;;;;;7.03;6.37;;;8.90;36.70;;;;;;5067592;28;20412;-68
2023/05/06 12:47:03;;;;;;;7.17;6.47;;;8.90;38.60;;;;;;5053749;28;20413;-69
2023/05/06 12:49:53;;;;;;;6.40;5.73;;;8.90;33.20;;;;;;5058601;28;20428;-68
2023/05/06 12:52:23;;;;;;;9.50;7.27;;;8.90;31.90;;;;;;5055607;28;20538;-68
2023/05/06 12:54:53;;;;;;;8.77;7.87;;;8.90;22.10;;;;;;5073460;28;20394;-69
2023/05/06 12:57:19;;;;;;;9.37;6.67;;;8.80;19.50;;;;;;5055165;28;20393;-71